Time;durP1;ratioP1;P1;durP2;ratioP2;P2;SDS_P1;SDS_P2;PMS_P1;PMS_P2;Temp;Humidity;BMP_temperature;BMP_pressure;BME280_temperature;BME280_humidity;BME280_pressure;Samples;Min_cycle;Max_cycle;Signal;HPM_P1;HPM_P2
2020/12/17 00:00:59;;;;;;;19.47;10.61;;;;;;;3.91;70.35;100252.95;361170;109;1960655;-74
2020/12/17 00:02:05;;;;;;;19.52;9.76;;;;;;;3.94;70.12;100249.98;366304;109;1960708;-74
2020/12/17 00:03:10;;;;;;;20.74;10.03;;;;;;;3.93;69.95;100249.14;366863;108;1961670;-73
2020/12/17 00:04:16;;;;;;;20.35;10.72;;;;;;;3.93;69.99;100251.81;366820;108;1960723;-74
2020/12/17 00:05:24;;;;;;;20.96;11.62;;;;;;;3.90;70.12;100251.28;333933;109;2571700;-74
2020/12/17 00:06:32;;;;;;;24.26;12.19;;;;;;;3.87;70.14;100265.78;316292;109;2850692;-75
2020/12/17 00:07:39;;;;;;;19.03;10.59;;;;;;;3.83;69.97;100261.71;347601;109;1960714;-73
2020/12/17 00:08:44;;;;;;;21.83;10.82;;;;;;;3.72;70.15;100260.08;367049;108;1960698;-73
2020/12/17 00:09:50;;;;;;;19.81;10.01;;;;;;;3.65;70.24;100261.67;367083;108;1960710;-73
2020/12/17 00:10:56;;;;;;;18.48;9.27;;;;;;;3.62;70.31;100258.43;333159;108;2883694;-75
2020/12/17 00:12:02;;;;;;;21.30;11.47;;;;;;;3.55;70.63;100258.19;357430;108;1960630;-74
2020/12/17 00:13:07;;;;;;;18.08;9.49;;;;;;;3.47;70.95;100268.77;368404;108;1960719;-74
2020/12/17 00:14:13;;;;;;;19.58;9.71;;;;;;;3.44;71.28;100263.69;365783;108;1960635;-74
2020/12/17 00:15:19;;;;;;;19.29;9.98;;;;;;;3.45;71.04;100268.89;366706;108;1960732;-74
2020/12/17 00:16:26;;;;;;;17.23;9.27;;;;;;;3.44;71.18;100264.55;357833;109;1960674;-73
2020/12/17 00:17:32;;;;;;;17.62;9.16;;;;;;;3.46;71.23;100269.73;367339;109;1961717;-73
2020/12/17 00:18:37;;;;;;;15.89;8.89;;;;;;;3.48;71.25;100260.59;366859;108;1960754;-73
2020/12/17 00:19:42;;;;;;;16.49;7.61;;;;;;;3.52;71.24;100264.66;367461;109;1960668;-73
2020/12/17 00:20:49;;;;;;;14.93;7.74;;;;;;;3.55;71.20;100268.01;366887;108;1960822;-73
2020/12/17 00:21:55;;;;;;;14.62;7.46;;;;;;;3.59;71.07;100264.07;341054;109;2408640;-73
2020/12/17 00:23:00;;;;;;;17.85;9.20;;;;;;;3.61;70.94;100260.27;349721;108;1961623;-74
2020/12/17 00:24:06;;;;;;;17.18;8.82;;;;;;;3.62;70.95;100269.12;367688;108;1960624;-74
2020/12/17 00:25:13;;;;;;;16.60;9.27;;;;;;;3.60;71.06;100265.74;367941;108;1960642;-73
2020/12/17 00:26:19;;;;;;;17.94;8.10;;;;;;;3.60;71.15;100261.27;334822;109;2899623;-74
2020/12/17 00:27:24;;;;;;;17.41;8.63;;;;;;;3.61;71.16;100268.28;343442;109;1960651;-74
2020/12/17 00:28:30;;;;;;;16.71;8.64;;;;;;;3.60;71.36;100266.61;365395;108;1960686;-71
2020/12/17 00:29:35;;;;;;;15.17;8.46;;;;;;;3.62;71.33;100269.12;367279;108;1961712;-74
2020/12/17 00:30:42;;;;;;;14.54;8.33;;;;;;;3.66;71.20;100267.85;367601;108;1960643;-74
2020/12/17 00:31:51;;;;;;;15.32;7.80;;;;;;;3.67;71.16;100269.52;344509;108;2343749;-74
2020/12/17 00:32:57;;;;;;;15.88;8.07;;;;;;;3.64;71.23;100264.48;366833;108;1960678;-74
2020/12/17 00:34:03;;;;;;;15.03;7.23;;;;;;;3.70;71.01;100267.39;339158;108;2486706;-74
2020/12/17 00:35:09;;;;;;;16.03;7.83;;;;;;;3.67;71.11;100266.84;356163;109;1960740;-72
2020/12/17 00:36:23;;;;;;;14.01;7.39;;;;;;;3.71;70.98;100265.58;366509;109;1960651;-73
2020/12/17 00:37:29;;;;;;;12.53;6.47;;;;;;;3.72;70.91;100270.77;362138;108;1960704;-74
2020/12/17 00:38:34;;;;;;;14.42;7.55;;;;;;;3.69;70.98;100263.05;366149;108;1960602;-73
2020/12/17 00:39:41;;;;;;;13.31;7.77;;;;;;;3.66;71.08;100262.50;365872;109;1961667;-73
2020/12/17 00:40:47;;;;;;;14.31;7.63;;;;;;;3.66;71.10;100262.50;344636;109;1960710;-74
2020/12/17 00:41:53;;;;;;;13.71;7.98;;;;;;;3.69;71.02;100263.05;367285;108;1960759;-73
2020/12/17 00:42:58;;;;;;;15.42;8.03;;;;;;;3.67;71.13;100261.50;366567;108;1960784;-73
2020/12/17 00:44:03;;;;;;;14.37;7.75;;;;;;;3.64;71.07;100259.97;366779;109;1960659;-74
2020/12/17 00:45:09;;;;;;;13.38;6.82;;;;;;;3.66;71.14;100254.49;367067;108;1961100;-74
2020/12/17 00:46:16;;;;;;;14.53;7.17;;;;;;;3.62;71.29;100261.10;332894;110;2569729;-73
2020/12/17 00:47:22;;;;;;;14.31;7.94;;;;;;;3.64;71.37;100259.97;368257;110;1960677;-73
2020/12/17 00:48:27;;;;;;;13.24;7.39;;;;;;;3.63;71.31;100266.31;366737;108;1960658;-74
2020/12/17 00:49:32;;;;;;;14.08;7.67;;;;;;;3.70;71.13;100261.20;366263;108;1960613;-73
2020/12/17 00:50:37;;;;;;;13.23;7.84;;;;;;;3.73;70.87;100261.78;364145;108;1960657;-73
2020/12/17 00:51:43;;;;;;;14.56;7.47;;;;;;;3.70;70.97;100254.03;361098;111;1960694;-73
2020/12/17 00:52:49;;;;;;;12.96;6.97;;;;;;;3.71;71.00;100249.55;335153;110;2452721;-73
2020/12/17 00:53:55;;;;;;;15.67;7.61;;;;;;;3.74;70.99;100254.59;340435;107;1960634;-72
2020/12/17 00:55:00;;;;;;;12.54;6.99;;;;;;;3.74;70.92;100244.74;354902;112;1960632;-73
2020/12/17 00:56:06;;;;;;;12.88;6.86;;;;;;;3.73;70.92;100245.74;354303;112;1961706;-73
2020/12/17 00:57:11;;;;;;;16.37;7.89;;;;;;;3.73;70.92;100247.55;355586;112;1961737;-73
2020/12/17 00:58:17;;;;;;;13.33;7.13;;;;;;;3.74;70.93;100236.73;357193;112;1960673;-73
2020/12/17 00:59:23;;;;;;;12.67;7.17;;;;;;;3.77;70.83;100240.09;313488;110;2825680;-72
2020/12/17 01:00:30;;;;;;;13.69;6.66;;;;;;;3.74;70.86;100234.05;360757;110;1960757;-72
2020/12/17 01:01:37;;;;;;;14.50;7.08;;;;;;;3.81;70.60;100238.80;357566;110;1961567;-73
2020/12/17 01:02:43;;;;;;;11.86;6.59;;;;;;;3.77;70.74;100235.59;334486;110;2943660;-73
2020/12/17 01:03:48;;;;;;;14.81;7.14;;;;;;;3.76;70.82;100231.25;349560;110;1960735;-73
2020/12/17 01:04:53;;;;;;;15.04;8.36;;;;;;;3.78;70.83;100237.27;360950;110;1960710;-73
2020/12/17 01:05:59;;;;;;;14.32;7.35;;;;;;;3.78;70.73;100225.73;358440;110;1960602;-73
2020/12/17 01:07:04;;;;;;;15.39;7.57;;;;;;;3.82;70.55;100227.14;360846;110;1960694;-73
2020/12/17 01:08:11;;;;;;;16.19;7.71;;;;;;;3.80;70.48;100223.77;360728;110;1960708;-72
2020/12/17 01:09:16;;;;;;;13.32;7.45;;;;;;;3.80;70.48;100231.78;316626;110;2753699;-73
2020/12/17 01:10:24;;;;;;;13.05;7.27;;;;;;;3.74;70.77;100231.38;362298;110;1960686;-73
2020/12/17 01:11:30;;;;;;;13.56;7.08;;;;;;;3.74;70.87;100231.38;359872;110;1961731;-73
2020/12/17 01:12:41;;;;;;;14.00;7.48;;;;;;;3.77;70.78;100230.25;331581;110;1960738;-73
2020/12/17 01:13:47;;;;;;;12.42;6.21;;;;;;;3.77;70.84;100224.91;359664;110;1960690;-72
2020/12/17 01:14:52;;;;;;;14.56;6.94;;;;;;;3.82;70.61;100219.13;358227;110;1960712;-73
2020/12/17 01:15:59;;;;;;;12.92;6.73;;;;;;;3.81;70.60;100222.77;360015;110;1968714;-74
2020/12/17 01:17:06;;;;;;;14.85;7.94;;;;;;;3.80;70.70;100219.25;318750;110;2735746;-73
2020/12/17 01:18:11;;;;;;;14.66;7.61;;;;;;;3.82;70.67;100216.45;359851;110;1960746;-72
2020/12/17 01:19:17;;;;;;;13.91;7.49;;;;;;;3.79;70.73;100216.75;359432;110;1960635;-73
2020/12/17 01:20:22;;;;;;;15.02;6.83;;;;;;;3.78;70.74;100213.21;359530;110;1960696;-72
2020/12/17 01:21:28;;;;;;;15.69;7.46;;;;;;;3.75;70.72;100213.52;360977;110;1960699;-73
2020/12/17 01:22:34;;;;;;;13.06;7.59;;;;;;;3.77;70.78;100216.05;325282;110;2930712;-72
2020/12/17 01:23:39;;;;;;;14.28;6.87;;;;;;;3.75;70.75;100214.34;336943;110;1960651;-73
2020/12/17 01:24:44;;;;;;;16.47;8.11;;;;;;;3.70;70.91;100216.63;353058;110;1960714;-73
2020/12/17 01:25:50;;;;;;;14.19;7.78;;;;;;;3.72;70.87;100222.66;359997;110;1960683;-73
2020/12/17 01:26:57;;;;;;;14.46;7.01;;;;;;;3.74;70.63;100220.70;359062;110;1960661;-73
2020/12/17 01:28:07;;;;;;;14.15;7.17;;;;;;;3.66;70.93;100212.58;335435;110;2412588;-72
2020/12/17 01:29:13;;;;;;;12.21;6.36;;;;;;;3.63;71.17;100225.41;319844;110;2729796;-73
2020/12/17 01:30:20;;;;;;;14.26;7.48;;;;;;;3.49;71.24;100208.88;360720;110;1960709;-72
2020/12/17 01:31:25;;;;;;;13.47;7.28;;;;;;;3.70;71.08;100221.97;358664;110;1960788;-73
2020/12/17 01:32:31;;;;;;;14.68;7.78;;;;;;;3.70;70.95;100219.30;359897;110;1960664;-73
2020/12/17 01:33:38;;;;;;;13.07;6.77;;;;;;;3.68;71.10;100231.15;314643;110;2786686;-73
2020/12/17 01:34:43;;;;;;;13.76;7.13;;;;;;;3.68;71.22;100231.15;359371;110;1960671;-72
2020/12/17 01:35:50;;;;;;;12.68;6.56;;;;;;;3.68;71.11;100237.33;358538;110;1960696;-73
2020/12/17 01:36:57;;;;;;;12.88;6.73;;;;;;;3.68;71.05;100231.98;337164;110;1960739;-73
2020/12/17 01:38:02;;;;;;;13.42;6.98;;;;;;;3.68;70.98;100229.31;359523;110;1960644;-73
2020/12/17 01:39:08;;;;;;;11.81;6.51;;;;;;;3.67;70.99;100232.95;358761;110;1960660;-72
2020/12/17 01:40:15;;;;;;;11.72;6.14;;;;;;;3.66;71.11;100233.13;359345;110;1960784;-73
2020/12/17 01:41:21;;;;;;;13.52;6.82;;;;;;;3.67;71.01;100234.79;328035;110;2541610;-73
2020/12/17 01:42:26;;;;;;;12.76;6.82;;;;;;;3.68;71.06;100225.80;341520;110;1960765;-72
2020/12/17 01:43:37;;;;;;;14.23;7.45;;;;;;;3.66;71.07;100225.94;359033;110;1961988;-72
2020/12/17 01:44:43;;;;;;;13.14;6.62;;;;;;;3.65;71.19;100232.28;360166;110;1960713;-73
2020/12/17 01:45:49;;;;;;;15.16;7.24;;;;;;;3.70;70.96;100240.67;359808;110;1960679;-73
2020/12/17 01:46:55;;;;;;;13.48;6.33;;;;;;;3.67;71.01;100245.48;315807;110;2083401;-72
2020/12/17 01:48:00;;;;;;;12.16;6.67;;;;;;;3.68;70.96;100242.67;332575;110;1960686;-73
2020/12/17 01:49:06;;;;;;;12.52;6.26;;;;;;;3.65;71.00;100242.97;360484;110;1960672;-72
2020/12/17 01:50:13;;;;;;;12.05;6.91;;;;;;;3.63;71.01;100246.77;359906;110;1960653;-72
2020/12/17 01:51:19;;;;;;;13.16;6.73;;;;;;;3.60;71.26;100249.72;327390;110;2553676;-74
2020/12/17 01:52:25;;;;;;;12.62;6.09;;;;;;;3.57;71.41;100255.35;324352;110;1969247;-73
2020/12/17 01:53:39;;;;;;;13.07;6.37;;;;;;;3.56;71.35;100253.69;359922;110;1960598;-73
2020/12/17 01:54:54;;;;;;;11.54;5.93;;;;;;;3.56;71.42;100249.17;357265;110;1960825;-73
2020/12/17 01:56:01;;;;;;;13.31;6.69;;;;;;;3.55;71.57;100254.66;353477;112;1960598;-73
2020/12/17 01:57:09;;;;;;;10.82;5.58;;;;;;;3.57;71.58;100253.52;354291;112;1960825;-74
2020/12/17 01:58:18;;;;;;;13.34;6.73;;;;;;;3.60;71.44;100255.05;354320;112;1960739;-74
2020/12/17 01:59:25;;;;;;;12.82;6.42;;;;;;;3.59;71.42;100253.39;353673;112;1960737;-73
2020/12/17 02:00:36;;;;;;;13.29;6.82;;;;;;;3.59;71.43;100246.20;328886;112;2410708;-73
2020/12/17 02:01:50;;;;;;;12.63;6.41;;;;;;;3.61;71.50;100246.91;329761;112;2413657;-74
2020/12/17 02:02:55;;;;;;;11.98;6.49;;;;;;;3.66;71.24;100246.48;353651;112;1960677;-73
2020/12/17 02:04:02;;;;;;;14.32;7.02;;;;;;;3.63;71.36;100241.44;312968;112;2732712;-73
2020/12/17 02:05:08;;;;;;;14.27;6.77;;;;;;;3.64;71.30;100238.59;341945;116;1960714;-73
2020/12/17 02:06:17;;;;;;;14.54;6.33;;;;;;;3.65;71.30;100229.61;324799;115;1960758;-73
2020/12/17 02:07:22;;;;;;;12.36;6.73;;;;;;;3.68;71.31;100241.84;352905;112;1960585;-73
2020/12/17 02:08:31;;;;;;;14.76;6.57;;;;;;;3.67;71.26;100238.30;353916;112;1960676;-73
2020/12/17 02:09:37;;;;;;;12.50;6.99;;;;;;;3.63;71.20;100226.23;350414;112;1960745;-73
2020/12/17 02:10:45;;;;;;;12.32;6.49;;;;;;;3.59;71.48;100229.34;353228;112;1960676;-73
2020/12/17 02:11:54;;;;;;;12.50;6.69;;;;;;;3.56;71.74;100229.64;304884;112;2143902;-73
2020/12/17 02:13:00;;;;;;;14.24;8.21;;;;;;;3.56;71.63;100227.80;311010;112;2082678;-73
2020/12/17 02:14:05;;;;;;;13.44;7.32;;;;;;;3.57;71.62;100223.30;343187;112;1960709;-73
2020/12/17 02:15:11;;;;;;;11.79;6.39;;;;;;;3.53;71.90;100223.59;353964;112;1962278;-73
2020/12/17 02:16:16;;;;;;;13.21;7.15;;;;;;;3.60;71.67;100228.34;353851;112;1960670;-73
2020/12/17 02:17:21;;;;;;;13.88;6.36;;;;;;;3.61;71.49;100225.53;354690;112;1960651;-73
2020/12/17 02:18:28;;;;;;;10.91;5.95;;;;;;;3.63;71.47;100225.41;354659;112;1960670;-73
2020/12/17 02:19:34;;;;;;;15.62;6.88;;;;;;;3.62;71.45;100235.22;308310;112;2824702;-73
2020/12/17 02:20:40;;;;;;;11.12;6.34;;;;;;;3.60;71.50;100229.20;354430;112;1960683;-73
2020/12/17 02:21:46;;;;;;;12.16;6.43;;;;;;;3.57;71.61;100234.82;353562;112;1961692;-72
2020/12/17 02:22:52;;;;;;;12.72;6.93;;;;;;;3.55;71.84;100239.48;353975;114;1960726;-73
2020/12/17 02:23:59;;;;;;;11.62;6.41;;;;;;;3.55;71.67;100231.48;330830;112;2227874;-73
2020/12/17 02:25:07;;;;;;;13.62;7.55;;;;;;;3.56;71.75;100238.48;354592;112;1961711;-72
2020/12/17 02:26:14;;;;;;;12.51;6.98;;;;;;;3.57;71.73;100232.15;353606;112;1961576;-72
2020/12/17 02:27:19;;;;;;;12.01;6.31;;;;;;;3.55;71.85;100234.15;354060;112;1960649;-73
2020/12/17 02:28:24;;;;;;;12.17;6.02;;;;;;;3.57;71.71;100242.83;353982;112;1960787;-73
2020/12/17 02:29:29;;;;;;;12.67;6.69;;;;;;;3.58;71.80;100246.38;354461;112;1961659;-73
2020/12/17 02:30:36;;;;;;;13.02;6.62;;;;;;;3.56;71.79;100234.98;337069;112;2256689;-73
2020/12/17 02:31:41;;;;;;;12.87;6.79;;;;;;;3.56;71.81;100237.66;326809;112;1960636;-73
2020/12/17 02:32:47;;;;;;;13.81;6.92;;;;;;;3.52;72.06;100245.13;351063;112;1960689;-73
2020/12/17 02:33:53;;;;;;;14.11;6.17;;;;;;;3.50;72.06;100242.59;354532;112;1960804;-72
2020/12/17 02:34:58;;;;;;;12.58;6.32;;;;;;;3.55;72.00;100243.97;352818;112;1960640;-73
2020/12/17 02:36:04;;;;;;;12.05;6.57;;;;;;;3.55;71.92;100247.50;353781;114;1960694;-73
2020/12/17 02:37:11;;;;;;;13.41;6.92;;;;;;;3.54;71.95;100253.81;307814;112;2856720;-73
2020/12/17 02:38:16;;;;;;;14.44;7.79;;;;;;;3.56;71.95;100253.69;345489;112;1959703;-73
2020/12/17 02:39:21;;;;;;;13.02;6.50;;;;;;;3.55;71.88;100249.31;355642;112;1960659;-72
2020/12/17 02:40:27;;;;;;;12.76;6.51;;;;;;;3.56;71.82;100254.52;355695;112;1960593;-73
2020/12/17 02:41:33;;;;;;;12.02;6.43;;;;;;;3.57;71.75;100258.86;353318;112;1959658;-73
2020/12/17 02:42:39;;;;;;;13.91;7.01;;;;;;;3.55;71.92;100252.84;308748;112;2841731;-73
2020/12/17 02:43:44;;;;;;;13.92;7.26;;;;;;;3.53;71.99;100260.99;323466;112;1960730;-73
2020/12/17 02:44:50;;;;;;;12.69;6.78;;;;;;;3.49;72.16;100259.62;351857;112;1960596;-73
2020/12/17 02:45:55;;;;;;;12.74;6.86;;;;;;;3.47;72.39;100255.41;354484;112;1960635;-73
2020/12/17 02:47:00;;;;;;;11.46;6.42;;;;;;;3.40;72.57;100263.14;355790;112;1960678;-73
2020/12/17 02:48:05;;;;;;;13.71;7.50;;;;;;;3.46;72.22;100269.73;356220;112;1960707;-72
2020/12/17 02:49:11;;;;;;;11.83;6.68;;;;;;;3.41;72.34;100258.64;355603;112;1960623;-73
2020/12/17 02:50:18;;;;;;;12.13;6.53;;;;;;;3.43;72.30;100262.84;326125;112;2513662;-73
2020/12/17 02:51:23;;;;;;;12.27;6.88;;;;;;;3.40;72.47;100254.30;353113;112;1960717;-73
2020/12/17 02:52:29;;;;;;;12.93;6.96;;;;;;;3.45;72.28;100265.39;353377;112;1960675;-73
2020/12/17 02:53:34;;;;;;;13.12;6.64;;;;;;;3.44;72.48;100263.69;353680;112;1960764;-73
2020/12/17 02:54:39;;;;;;;13.68;6.44;;;;;;;3.45;72.38;100254.70;354324;112;1960670;-73
2020/12/17 02:55:46;;;;;;;13.41;7.33;;;;;;;3.45;72.42;100246.70;353050;112;1960560;-73
2020/12/17 02:56:51;;;;;;;12.57;6.44;;;;;;;3.46;72.52;100254.54;335743;112;2301652;-72
2020/12/17 02:57:57;;;;;;;13.48;6.53;;;;;;;3.45;72.33;100255.54;331547;112;1960694;-72
2020/12/17 02:59:02;;;;;;;12.56;6.59;;;;;;;3.44;72.51;100251.20;342403;116;1960623;-73
2020/12/17 03:00:11;;;;;;;13.80;6.72;;;;;;;3.40;72.72;100254.30;354124;113;1960708;-73
2020/12/17 03:01:16;;;;;;;15.11;7.42;;;;;;;3.39;72.81;100248.13;332528;112;1960734;-73
2020/12/17 03:02:21;;;;;;;14.88;6.56;;;;;;;3.43;72.76;100259.34;353979;112;1960602;-73
2020/12/17 03:03:27;;;;;;;13.10;6.34;;;;;;;3.45;72.65;100257.37;354801;112;1960645;-73
2020/12/17 03:04:32;;;;;;;12.51;6.04;;;;;;;3.49;72.49;100253.41;353149;112;1960681;-73
2020/12/17 03:05:37;;;;;;;12.03;6.33;;;;;;;3.49;72.45;100256.95;353359;112;1960722;-73
2020/12/17 03:06:46;;;;;;;10.34;5.46;;;;;;;3.49;72.50;100254.28;354325;112;1960621;-73
2020/12/17 03:07:53;;;;;;;11.74;5.83;;;;;;;3.50;72.60;100255.95;354951;112;1960762;-73
2020/12/17 03:08:59;;;;;;;12.97;6.81;;;;;;;3.51;72.41;100254.95;321520;112;2557761;-73
2020/12/17 03:10:06;;;;;;;12.10;5.95;;;;;;;3.52;72.47;100261.16;342022;112;1960732;-74
2020/12/17 03:11:11;;;;;;;11.77;6.24;;;;;;;3.50;72.47;100253.28;352486;112;1960635;-72
2020/12/17 03:12:17;;;;;;;12.38;5.81;;;;;;;3.48;72.55;100260.59;354462;112;1960758;-72
2020/12/17 03:13:23;;;;;;;13.65;6.14;;;;;;;3.46;72.69;100257.21;313022;112;2888681;-72
2020/12/17 03:14:29;;;;;;;10.58;5.39;;;;;;;3.49;72.59;100259.62;336981;112;1960721;-73
2020/12/17 03:15:34;;;;;;;11.87;5.98;;;;;;;3.49;72.68;100254.28;354164;112;1960674;-73
2020/12/17 03:16:42;;;;;;;13.24;5.95;;;;;;;3.48;72.66;100259.75;354244;112;1960748;-73
2020/12/17 03:17:47;;;;;;;13.52;6.18;;;;;;;3.50;72.75;100257.78;309713;112;2853690;-73
2020/12/17 03:18:56;;;;;;;11.51;6.09;;;;;;;3.49;72.83;100264.09;352807;112;1960698;-73
2020/12/17 03:20:02;;;;;;;12.29;6.24;;;;;;;3.47;72.98;100260.75;346763;115;1960619;-74
2020/12/17 03:21:07;;;;;;;11.48;5.79;;;;;;;3.45;73.14;100268.06;332255;112;1960687;-73
2020/12/17 03:22:13;;;;;;;13.78;6.12;;;;;;;3.47;73.11;100269.59;346807;115;1960747;-73
2020/12/17 03:23:19;;;;;;;11.50;5.76;;;;;;;3.50;73.10;100263.13;349075;112;1960669;-72
2020/12/17 03:24:24;;;;;;;12.17;5.81;;;;;;;3.49;73.04;100270.30;355144;112;1960743;-73
2020/12/17 03:25:29;;;;;;;10.91;5.58;;;;;;;3.50;72.96;100271.97;345160;115;1960670;-73
2020/12/17 03:26:36;;;;;;;11.54;5.69;;;;;;;3.49;73.06;100277.45;316513;112;2004384;-73
2020/12/17 03:27:41;;;;;;;12.60;6.29;;;;;;;3.49;73.06;100274.78;346344;112;1960650;-73
2020/12/17 03:28:47;;;;;;;12.00;5.98;;;;;;;3.44;73.25;100277.91;353517;112;1960668;-72
2020/12/17 03:29:53;;;;;;;10.74;5.84;;;;;;;3.45;73.42;100287.59;354758;112;1960735;-73
2020/12/17 03:30:59;;;;;;;13.31;6.11;;;;;;;3.47;73.41;100282.95;353857;112;1960382;-74
2020/12/17 03:32:05;;;;;;;10.86;5.67;;;;;;;3.52;73.09;100283.36;312249;112;2753703;-73
2020/12/17 03:33:11;;;;;;;12.24;6.03;;;;;;;3.47;73.23;100290.12;343814;112;1960707;-72
2020/12/17 03:34:16;;;;;;;11.50;5.86;;;;;;;3.52;73.03;100285.20;354420;112;1960713;-73
2020/12/17 03:35:21;;;;;;;10.28;5.25;;;;;;;3.55;72.97;100286.70;354819;112;1961695;-73
2020/12/17 03:36:28;;;;;;;12.66;6.21;;;;;;;3.58;72.77;100286.44;353213;112;1960642;-72
2020/12/17 03:37:34;;;;;;;11.38;6.17;;;;;;;3.56;72.95;100283.06;306408;112;2868762;-73
2020/12/17 03:38:39;;;;;;;12.58;6.44;;;;;;;3.58;72.78;100291.78;334132;112;1960657;-73
2020/12/17 03:39:44;;;;;;;10.97;5.16;;;;;;;3.56;72.97;100289.24;354521;112;1960676;-72
2020/12/17 03:40:50;;;;;;;12.46;6.31;;;;;;;3.55;73.06;100292.91;355146;112;1960693;-72
2020/12/17 03:41:56;;;;;;;13.61;6.13;;;;;;;3.57;73.06;100295.42;355755;112;1960709;-73
2020/12/17 03:43:02;;;;;;;10.52;5.76;;;;;;;3.57;73.22;100290.91;352751;112;1960752;-72
2020/12/17 03:44:08;;;;;;;10.77;5.88;;;;;;;3.61;73.22;100295.00;311474;112;2750718;-72
2020/12/17 03:45:13;;;;;;;13.09;6.18;;;;;;;3.66;72.86;100291.89;334462;112;1960682;-72
2020/12/17 03:46:20;;;;;;;12.82;6.87;;;;;;;3.70;72.67;100303.95;354623;112;1960737;-72
2020/12/17 03:47:26;;;;;;;13.24;6.06;;;;;;;3.69;72.66;100292.44;352284;112;1960709;-73
2020/12/17 03:48:32;;;;;;;11.14;5.62;;;;;;;3.70;72.53;100291.44;306755;112;2846932;-73
2020/12/17 03:49:37;;;;;;;12.27;6.38;;;;;;;3.68;72.64;100287.25;341145;112;1960650;-74
2020/12/17 03:50:43;;;;;;;11.47;5.92;;;;;;;3.71;72.65;100300.31;354552;112;1960595;-73
2020/12/17 03:51:48;;;;;;;11.81;5.43;;;;;;;3.69;72.63;100288.92;347849;115;1960662;-72
2020/12/17 03:52:55;;;;;;;11.12;6.23;;;;;;;3.70;72.61;100294.11;351735;112;1960746;-73
2020/12/17 03:54:01;;;;;;;10.93;5.64;;;;;;;3.74;72.58;100292.84;313038;115;2591782;-73
2020/12/17 03:55:07;;;;;;;12.29;5.65;;;;;;;3.76;72.60;100298.05;332270;113;1960684;-73
2020/12/17 03:56:13;;;;;;;13.18;6.48;;;;;;;3.60;72.33;100266.61;355543;110;1960719;-73
2020/12/17 03:57:18;;;;;;;10.47;5.94;;;;;;;3.77;72.39;100291.70;358551;110;1960660;-74
2020/12/17 03:58:24;;;;;;;11.02;5.41;;;;;;;3.75;72.47;100291.00;360499;110;1960680;-72
2020/12/17 03:59:30;;;;;;;13.02;6.24;;;;;;;3.73;72.56;100287.63;320881;110;2668650;-73
2020/12/17 04:00:36;;;;;;;12.79;5.86;;;;;;;3.76;72.78;100292.70;359420;110;1961649;-73
2020/12/17 04:01:42;;;;;;;14.09;7.06;;;;;;;3.80;72.60;100290.57;359746;110;1960653;-73
2020/12/17 04:02:47;;;;;;;11.90;6.52;;;;;;;3.81;72.41;100295.78;358998;110;1960662;-73
2020/12/17 04:03:53;;;;;;;12.24;7.24;;;;;;;3.80;72.44;100293.24;358989;110;1960685;-73
2020/12/17 04:04:59;;;;;;;11.13;6.30;;;;;;;3.80;72.40;100298.59;325781;110;2576694;-73
2020/12/17 04:06:04;;;;;;;12.91;5.81;;;;;;;3.77;72.40;100301.56;334524;110;1960757;-73
2020/12/17 04:07:12;;;;;;;13.20;6.39;;;;;;;3.72;72.61;100302.83;354396;110;1960708;-73
2020/12/17 04:08:17;;;;;;;13.63;7.09;;;;;;;3.73;72.76;100298.31;359834;110;1960633;-73
2020/12/17 04:09:23;;;;;;;11.94;6.76;;;;;;;3.72;72.75;100300.16;313264;110;2838705;-74
2020/12/17 04:10:30;;;;;;;13.58;6.56;;;;;;;3.74;72.59;100302.69;358151;110;1960739;-73
2020/12/17 04:11:37;;;;;;;13.30;6.57;;;;;;;3.70;72.73;100299.45;360257;110;1960641;-73
2020/12/17 04:12:43;;;;;;;12.33;6.14;;;;;;;3.69;72.80;100297.78;315481;110;2771711;-73
2020/12/17 04:13:48;;;;;;;12.74;6.51;;;;;;;3.70;72.79;100298.61;348348;110;1960680;-73
2020/12/17 04:14:54;;;;;;;12.61;6.78;;;;;;;3.68;72.92;100304.13;360028;110;1960673;-75
2020/12/17 04:15:59;;;;;;;15.22;6.62;;;;;;;3.70;72.79;100303.95;357391;110;1960707;-73
2020/12/17 04:17:05;;;;;;;12.55;6.19;;;;;;;3.65;72.85;100306.22;358965;110;1960748;-73
2020/12/17 04:18:11;;;;;;;13.53;6.24;;;;;;;3.67;72.93;100301.58;361870;110;1961623;-73
2020/12/17 04:19:17;;;;;;;11.58;7.25;;;;;;;3.66;72.79;100303.42;311056;110;2853745;-74
2020/12/17 04:20:22;;;;;;;14.68;6.50;;;;;;;3.61;73.01;100308.35;352827;110;1960603;-74
2020/12/17 04:21:28;;;;;;;11.66;6.31;;;;;;;3.61;72.96;100305.68;359255;110;1960571;-73
2020/12/17 04:22:33;;;;;;;12.68;7.25;;;;;;;3.59;73.04;100309.48;360505;110;1960638;-73
2020/12/17 04:23:38;;;;;;;14.38;7.27;;;;;;;3.59;72.83;100301.47;359665;110;1960686;-74
2020/12/17 04:24:45;;;;;;;12.24;6.86;;;;;;;3.62;72.72;100303.84;357317;110;1960691;-73
2020/12/17 04:25:51;;;;;;;12.39;6.43;;;;;;;3.63;72.78;100309.06;358194;110;1960622;-72
2020/12/17 04:26:57;;;;;;;13.42;7.03;;;;;;;3.61;72.74;100305.68;358981;110;1960667;-73
2020/12/17 04:28:02;;;;;;;13.40;6.47;;;;;;;3.63;72.74;100302.88;358859;110;1960741;-74
2020/12/17 04:29:07;;;;;;;11.38;6.20;;;;;;;3.62;72.75;100299.34;358769;110;1960684;-74
2020/12/17 04:30:13;;;;;;;12.43;6.53;;;;;;;3.61;72.87;100304.84;358829;110;1960697;-72
2020/12/17 04:31:19;;;;;;;14.59;7.26;;;;;;;3.59;73.00;100302.30;351117;110;2903803;-74
2020/12/17 04:32:24;;;;;;;13.83;7.39;;;;;;;3.58;73.13;100303.30;330672;110;1960678;-73
2020/12/17 04:33:30;;;;;;;13.72;6.99;;;;;;;3.59;73.32;100301.47;350477;110;1962578;-74
2020/12/17 04:34:35;;;;;;;12.24;6.41;;;;;;;3.63;73.19;100309.06;358037;110;1960662;-73
2020/12/17 04:35:41;;;;;;;12.99;6.71;;;;;;;3.62;73.17;100299.34;358125;110;1960675;-73
2020/12/17 04:36:46;;;;;;;14.90;7.25;;;;;;;3.65;73.12;100300.88;359272;110;1960710;-73
2020/12/17 04:37:53;;;;;;;11.67;6.30;;;;;;;3.63;72.88;100302.88;320594;110;2007095;-73
2020/12/17 04:38:59;;;;;;;11.91;6.78;;;;;;;3.63;73.06;100300.20;355027;110;1960682;-73
2020/12/17 04:40:04;;;;;;;12.57;6.08;;;;;;;3.63;73.12;100298.37;359752;110;1960699;-74
2020/12/17 04:41:10;;;;;;;12.09;6.78;;;;;;;3.68;72.85;100300.61;358371;112;1960693;-74
2020/12/17 04:42:16;;;;;;;12.13;6.10;;;;;;;3.67;72.93;100301.58;359759;110;1960787;-73
2020/12/17 04:43:22;;;;;;;14.21;7.31;;;;;;;3.69;72.84;100296.94;327545;110;2545686;-73
2020/12/17 04:44:28;;;;;;;13.04;7.21;;;;;;;3.72;72.83;100293.97;318027;114;1961659;-73
2020/12/17 04:45:34;;;;;;;13.16;7.06;;;;;;;3.74;72.71;100300.02;353001;112;1960639;-73
2020/12/17 04:46:43;;;;;;;11.83;6.59;;;;;;;3.74;72.60;100294.67;352309;112;1960720;-74
2020/12/17 04:47:51;;;;;;;11.35;6.79;;;;;;;3.71;72.78;100295.81;353966;112;1960697;-73
2020/12/17 04:49:00;;;;;;;12.40;6.32;;;;;;;3.74;72.75;100294.67;319414;112;1960729;-73
2020/12/17 04:50:09;;;;;;;13.32;6.76;;;;;;;3.72;72.68;100300.16;352192;112;1960724;-73
2020/12/17 04:51:15;;;;;;;14.58;6.97;;;;;;;3.73;72.69;100293.84;352391;112;1960730;-73
2020/12/17 04:52:22;;;;;;;14.91;7.74;;;;;;;3.75;72.68;100291.00;304006;112;2877671;-73
2020/12/17 04:53:29;;;;;;;12.37;6.37;;;;;;;3.81;72.58;100295.78;352319;112;1960658;-73
2020/12/17 04:54:36;;;;;;;13.62;6.45;;;;;;;3.81;72.57;100293.11;324766;112;2493753;-73
2020/12/17 04:55:43;;;;;;;13.98;7.14;;;;;;;3.85;72.51;100293.64;348303;112;1960689;-73
2020/12/17 04:56:54;;;;;;;12.98;6.84;;;;;;;3.84;72.33;100294.65;333739;112;2376743;-73
2020/12/17 04:58:00;;;;;;;14.01;7.42;;;;;;;3.85;72.44;100291.81;355523;112;1960718;-73
2020/12/17 04:59:09;;;;;;;13.62;7.49;;;;;;;3.88;72.50;100293.34;352143;109;1960763;-74
2020/12/17 05:00:15;;;;;;;12.76;6.80;;;;;;;3.89;72.29;100293.22;311031;109;2145097;-73
2020/12/17 05:01:20;;;;;;;12.01;6.76;;;;;;;3.93;72.53;100296.42;362308;109;1960695;-74